createdAt,value
2022-09-09T00:01:58.241Z,100652.75
2022-09-09T00:04:34.201Z,100650.09
2022-09-09T00:07:09.441Z,100644.78
2022-09-09T00:09:46.133Z,100647.44
2022-09-09T00:12:19.496Z,100645.66
2022-09-09T00:14:57.754Z,100647.44
2022-09-09T00:17:40.815Z,100645.66
2022-09-09T00:20:18.296Z,100644.75
2022-09-09T00:22:54.012Z,100649.16
2022-09-09T00:25:32.133Z,100642.09
2022-09-09T00:28:02.157Z,100638.53
2022-09-09T00:30:38.901Z,100638.53
2022-09-09T00:33:16.127Z,100642.06
2022-09-09T00:35:50.941Z,100636.72
2022-09-09T00:38:27.747Z,100635.84
2022-09-09T00:41:02.808Z,100641.13
2022-09-09T00:43:34.482Z,100637.59
2022-09-09T00:46:27.612Z,100619.00
2022-09-09T00:49:08.526Z,100620.72
2022-09-09T00:51:51.789Z,100626.91
2022-09-09T00:54:36.845Z,100613.63
2022-09-09T00:57:17.022Z,100614.53
2022-09-09T00:59:52.147Z,100620.72
2022-09-09T01:02:31.559Z,100626.03
2022-09-09T01:05:08.943Z,100621.59
2022-09-09T01:07:41.266Z,100621.56
2022-09-09T01:10:19.071Z,100615.31
2022-09-09T01:12:51.265Z,100617.97
2022-09-09T01:15:26.774Z,100617.94
2022-09-09T01:18:04.158Z,100613.53
2022-09-09T01:20:42.644Z,100615.28
2022-09-09T01:23:30.090Z,100611.72
2022-09-09T01:26:28.852Z,100616.13
2022-09-09T01:28:58.915Z,100613.47
2022-09-09T01:31:33.611Z,100617.91
2022-09-09T01:34:03.319Z,100617.91
2022-09-09T01:36:38.827Z,100612.56
2022-09-09T01:39:08.642Z,100615.22
2022-09-09T01:41:42.044Z,100614.34
2022-09-09T01:44:12.341Z,100605.47
2022-09-09T01:46:42.459Z,100609.91
2022-09-09T01:49:13.909Z,100611.66
2022-09-09T01:51:46.625Z,100615.19
2022-09-09T01:54:16.388Z,100608.09
2022-09-09T01:57:01.254Z,100607.22
2022-09-09T01:59:58.713Z,100604.56
2022-09-09T02:02:34.251Z,100601.03
2022-09-09T02:05:13.143Z,100595.72
2022-09-09T02:07:45.576Z,100599.25
2022-09-09T02:10:21.129Z,100605.44
2022-09-09T02:12:59.821Z,100604.53
2022-09-09T02:15:35.423Z,100607.22
2022-09-09T02:18:11.205Z,100608.09
2022-09-09T02:20:42.224Z,100607.19
2022-09-09T02:23:14.763Z,100599.22
2022-09-09T02:25:45.627Z,100601.88
2022-09-09T02:28:21.560Z,100599.19
2022-09-09T02:30:56.383Z,100600.06
2022-09-09T02:33:29.343Z,100610.69
2022-09-09T02:36:04.569Z,100598.28
2022-09-09T02:38:40.859Z,100599.16
2022-09-09T02:41:10.750Z,100596.50
2022-09-09T02:43:43.016Z,100605.34
2022-09-09T02:46:29.210Z,100606.22
2022-09-09T02:49:04.818Z,100602.72
2022-09-09T02:51:44.512Z,100597.41
2022-09-09T02:54:20.862Z,100600.06
2022-09-09T02:56:55.412Z,100606.25
2022-09-09T02:59:30.436Z,100608.91
2022-09-09T03:02:00.221Z,100609.78
2022-09-09T03:04:30.099Z,100608.91
2022-09-09T03:07:00.122Z,100624.81
2022-09-09T03:09:29.888Z,100620.38
2022-09-09T03:11:59.997Z,100609.75
2022-09-09T03:14:32.279Z,100607.09
2022-09-09T03:17:03.484Z,100610.63
2022-09-09T03:19:34.045Z,100608.88
2022-09-09T03:22:05.574Z,100607.97
2022-09-09T03:24:35.264Z,100607.97
2022-09-09T03:27:04.927Z,100600.03
2022-09-09T03:29:37.222Z,100601.81
2022-09-09T03:32:07.045Z,100600.03
2022-09-09T03:34:38.143Z,100609.78
2022-09-09T03:37:07.868Z,100605.34
2022-09-09T03:39:37.611Z,100606.25
2022-09-09T03:42:07.747Z,100604.47
2022-09-09T03:44:41.059Z,100598.31
2022-09-09T03:47:14.184Z,100593.00
2022-09-09T03:49:43.876Z,100608.03
2022-09-09T03:52:14.152Z,100607.16
2022-09-09T03:54:44.085Z,100603.59
2022-09-09T03:57:14.933Z,100603.59
2022-09-09T03:59:47.578Z,100597.41
2022-09-09T04:02:17.321Z,100600.94
2022-09-09T04:04:47.045Z,100601.84
2022-09-09T04:07:17.027Z,100607.16
2022-09-09T04:09:47.034Z,100613.34
2022-09-09T04:12:17.805Z,100603.59
2022-09-09T04:14:50.133Z,100607.13
2022-09-09T04:17:19.959Z,100601.81
2022-09-09T04:19:49.618Z,100601.81
2022-09-09T04:22:19.548Z,100615.97
2022-09-09T04:24:49.229Z,100608.84
2022-09-09T04:27:19.004Z,100612.41
2022-09-09T04:29:51.330Z,100602.66
2022-09-09T04:32:20.994Z,100605.31
2022-09-09T04:34:50.700Z,100600.00
2022-09-09T04:37:20.362Z,100605.31
2022-09-09T04:39:50.486Z,100595.59
2022-09-09T04:42:20.743Z,100602.69
2022-09-09T04:44:53.037Z,100599.13
2022-09-09T04:47:22.728Z,100600.00
2022-09-09T04:49:53.155Z,100600.91
2022-09-09T04:52:22.835Z,100600.91
2022-09-09T04:54:53.380Z,100588.50
2022-09-09T04:57:23.152Z,100598.28
2022-09-09T04:59:55.484Z,100590.28
2022-09-09T05:02:28.585Z,100600.06
2022-09-09T05:05:01.234Z,100601.81
2022-09-09T05:07:32.405Z,100597.41
2022-09-09T05:10:02.352Z,100600.09
2022-09-09T05:12:32.547Z,100602.72
2022-09-09T05:15:04.963Z,100604.53
2022-09-09T05:17:34.992Z,100606.28
2022-09-09T05:20:10.204Z,100606.31
2022-09-09T05:22:41.547Z,100614.25
2022-09-09T05:25:12.177Z,100613.38
2022-09-09T05:27:41.872Z,100609.84
2022-09-09T05:30:15.881Z,100616.91
2022-09-09T05:32:45.576Z,100616.03
2022-09-09T05:35:15.260Z,100614.28
2022-09-09T05:37:44.944Z,100608.94
2022-09-09T05:40:14.767Z,100611.59
2022-09-09T05:42:44.719Z,100610.75
2022-09-09T05:45:17.121Z,100613.41
2022-09-09T05:47:46.774Z,100609.84
2022-09-09T05:50:17.268Z,100618.69
2022-09-09T05:52:47.173Z,100617.81
2022-09-09T05:55:17.057Z,100619.59
2022-09-09T05:57:53.067Z,100620.50
2022-09-09T06:00:25.448Z,100624.91
2022-09-09T06:02:56.064Z,100624.03
2022-09-09T06:05:29.690Z,100615.22
2022-09-09T06:07:59.553Z,100617.84
2022-09-09T06:10:29.308Z,100620.50
2022-09-09T06:12:59.099Z,100619.66
2022-09-09T06:15:31.991Z,100625.84
2022-09-09T06:18:01.667Z,100628.53
2022-09-09T06:20:31.743Z,100634.72
2022-09-09T06:23:01.908Z,100631.19
2022-09-09T06:25:31.815Z,100637.41
2022-09-09T06:28:01.574Z,100633.88
2022-09-09T06:30:33.900Z,100633.00
2022-09-09T06:33:03.703Z,100633.91
2022-09-09T06:35:33.371Z,100623.34
2022-09-09T06:38:03.257Z,100632.19
2022-09-09T06:40:33.062Z,100631.31
2022-09-09T06:43:04.680Z,100629.53
2022-09-09T06:45:37.752Z,100631.31
2022-09-09T06:48:07.593Z,100629.59
2022-09-09T06:50:37.370Z,100631.38
2022-09-09T06:53:07.099Z,100619.84
2022-09-09T06:55:36.790Z,100623.41
2022-09-09T06:58:06.524Z,100626.97
2022-09-09T07:00:39.893Z,100619.91
2022-09-09T07:03:09.705Z,100625.19
2022-09-09T07:05:39.362Z,100632.31
2022-09-09T07:08:09.821Z,100638.53
2022-09-09T07:10:39.508Z,100627.00
2022-09-09T07:13:09.274Z,100634.09
2022-09-09T07:15:41.781Z,100630.59
2022-09-09T07:18:11.699Z,100626.16
2022-09-09T07:20:41.376Z,100622.66
2022-09-09T07:23:11.121Z,100627.13
2022-09-09T07:25:40.859Z,100633.31
2022-09-09T07:28:10.808Z,100629.81
2022-09-09T07:30:43.874Z,100635.13
2022-09-09T07:33:13.837Z,100631.56
2022-09-09T07:35:43.916Z,100630.69
2022-09-09T07:38:13.589Z,100633.34
2022-09-09T07:40:43.290Z,100632.44
2022-09-09T07:43:17.142Z,100628.91
2022-09-09T07:45:51.261Z,100629.81
2022-09-09T07:48:20.947Z,100632.47
2022-09-09T07:50:50.610Z,100635.13
2022-09-09T07:53:21.063Z,100628.03
2022-09-09T07:55:50.750Z,100631.63
2022-09-09T07:58:20.406Z,100627.19
2022-09-09T08:00:55.019Z,100643.16
2022-09-09T08:03:25.104Z,100636.94
2022-09-09T08:05:54.926Z,100636.06
2022-09-09T08:08:24.605Z,100635.16
2022-09-09T08:10:54.261Z,100639.63
2022-09-09T08:13:24.306Z,100634.28
2022-09-09T08:15:56.904Z,100636.94
2022-09-09T08:18:26.695Z,100637.84
2022-09-09T08:20:56.382Z,100642.25
2022-09-09T08:23:27.028Z,100640.44
2022-09-09T08:25:56.711Z,100634.19
2022-09-09T08:28:26.527Z,100639.50
2022-09-09T08:30:58.887Z,100641.25
2022-09-09T08:33:28.682Z,100636.78
2022-09-09T08:35:58.417Z,100635.84
2022-09-09T08:38:29.699Z,100639.38
2022-09-09T08:41:11.072Z,100639.34
2022-09-09T08:43:40.786Z,100645.56
2022-09-09T08:46:19.233Z,100637.53
2022-09-09T08:48:57.775Z,100649.97
2022-09-09T08:51:31.659Z,100647.28
2022-09-09T08:54:03.446Z,100642.81
2022-09-09T08:56:37.195Z,100641.03
2022-09-09T08:59:08.090Z,100648.13
2022-09-09T09:01:53.937Z,100640.13
2022-09-09T09:04:37.883Z,100648.09
2022-09-09T09:07:22.236Z,100654.31
2022-09-09T09:10:01.431Z,100648.91
2022-09-09T09:12:33.946Z,100647.13
2022-09-09T09:15:03.937Z,100647.13
2022-09-09T09:17:38.729Z,100659.56
2022-09-09T09:20:16.264Z,100651.53
2022-09-09T09:22:52.519Z,100655.94
2022-09-09T09:25:24.315Z,100663.03
2022-09-09T09:28:02.447Z,100652.38
2022-09-09T09:30:38.338Z,100660.34
2022-09-09T09:33:21.266Z,100671.91
2022-09-09T09:35:52.812Z,100670.09
2022-09-09T09:41:13.885Z,100673.63
2022-09-09T09:43:46.335Z,100669.16
2022-09-09T09:46:24.920Z,100675.31
2022-09-09T09:49:03.960Z,100673.47
2022-09-09T09:51:36.683Z,100675.25
2022-09-09T09:54:29.199Z,100669.88
2022-09-09T09:56:59.413Z,100672.53
2022-09-09T09:59:40.679Z,100668.06
2022-09-09T10:02:18.944Z,100667.25
2022-09-09T10:04:51.589Z,100672.56
2022-09-09T10:07:23.335Z,100668.16
2022-09-09T10:09:57.658Z,100669.06
2022-09-09T10:12:39.345Z,100667.25
2022-09-09T10:15:26.369Z,100672.63
2022-09-09T10:18:05.514Z,100674.44
2022-09-09T10:20:46.877Z,100678.88
2022-09-09T10:23:31.059Z,100670.88
2022-09-09T10:26:16.526Z,100678.88
2022-09-09T10:29:11.412Z,100675.38
2022-09-09T10:31:49.507Z,100686.94
2022-09-09T10:34:48.220Z,100687.81
2022-09-09T10:37:40.684Z,100686.91
2022-09-09T10:40:25.802Z,100692.16
2022-09-09T10:42:59.541Z,100689.47
2022-09-09T10:45:39.028Z,100687.69
2022-09-09T10:48:24.105Z,100681.44
2022-09-09T10:51:05.279Z,100683.13
2022-09-09T10:53:55.173Z,100674.97
2022-09-09T10:56:27.635Z,100681.09
2022-09-09T10:59:02.399Z,100675.59
2022-09-09T11:01:38.245Z,100672.81
2022-09-09T11:04:20.337Z,100670.03
2022-09-09T11:06:55.128Z,100681.56
2022-09-09T11:09:32.864Z,100686.00
2022-09-09T11:12:05.482Z,100677.97
2022-09-09T11:14:39.877Z,100680.53
2022-09-09T11:17:15.531Z,100675.94
2022-09-09T11:19:46.752Z,100679.41
2022-09-09T11:22:31.057Z,100680.25
2022-09-09T11:25:09.622Z,100677.56
2022-09-09T11:27:47.968Z,100673.97
2022-09-09T11:30:44.559Z,100670.41
2022-09-09T11:33:31.315Z,100674.88
2022-09-09T11:36:27.875Z,100682.84
2022-09-09T11:39:06.240Z,100675.75
2022-09-09T11:41:41.823Z,100674.84
2022-09-09T11:44:17.477Z,100677.50
2022-09-09T11:46:53.680Z,100673.91
2022-09-09T11:49:32.539Z,100676.50
2022-09-09T11:52:02.249Z,100671.13
2022-09-09T11:54:34.495Z,100671.16
2022-09-09T11:57:27.468Z,100670.34
2022-09-09T12:00:01.149Z,100673.91
2022-09-09T12:02:32.998Z,100672.09
2022-09-09T12:05:06.745Z,100672.09
2022-09-09T12:07:40.720Z,100674.78
2022-09-09T12:10:27.981Z,100658.66
2022-09-09T12:12:57.782Z,100667.63
2022-09-09T12:15:32.855Z,100666.75
2022-09-09T12:18:03.993Z,100666.75
2022-09-09T12:20:39.954Z,100672.09
2022-09-09T12:23:28.553Z,100666.75
2022-09-09T12:26:14.787Z,100663.25
2022-09-09T12:28:54.575Z,100667.72
2022-09-09T12:31:31.751Z,100656.97
2022-09-09T12:34:13.653Z,100664.00
2022-09-09T12:36:49.610Z,100657.69
2022-09-09T12:39:33.041Z,100652.16
2022-09-09T12:42:05.389Z,100654.72
2022-09-09T12:44:36.118Z,100653.66
2022-09-09T12:47:08.824Z,100662.50
2022-09-09T12:49:42.791Z,100663.38
2022-09-09T12:52:20.870Z,100656.22
2022-09-09T12:54:52.656Z,100661.63
2022-09-09T12:57:22.499Z,100663.50
2022-09-09T12:59:52.307Z,100654.59
2022-09-09T13:02:26.889Z,100654.59
2022-09-09T13:04:57.149Z,100658.25
2022-09-09T13:07:27.524Z,100650.16
2022-09-09T13:09:57.299Z,100646.56
2022-09-09T13:12:27.559Z,100642.88
2022-09-09T13:14:59.991Z,100634.75
2022-09-09T13:17:32.679Z,100639.16
2022-09-09T13:20:03.729Z,100640.03
2022-09-09T13:22:37.219Z,100629.22
2022-09-09T13:25:11.878Z,100629.19
2022-09-09T13:27:44.392Z,100631.84
2022-09-09T13:30:29.431Z,100632.72
2022-09-09T13:33:26.833Z,100626.44
2022-09-09T13:36:00.106Z,100621.13
2022-09-09T13:38:31.911Z,100626.44
2022-09-09T13:41:05.553Z,100615.66
2022-09-09T13:43:38.767Z,100626.34
2022-09-09T13:46:26.456Z,100623.66
2022-09-09T13:49:03.284Z,100628.13
2022-09-09T13:51:46.292Z,100628.13
2022-09-09T13:54:17.809Z,100627.22
2022-09-09T13:56:48.391Z,100628.16
2022-09-09T13:59:20.820Z,100626.34
2022-09-09T14:01:50.770Z,100620.03
2022-09-09T14:04:23.673Z,100623.59
2022-09-09T14:06:53.601Z,100628.06
2022-09-09T14:09:23.300Z,100626.34
2022-09-09T14:11:53.055Z,100627.28
2022-09-09T14:14:22.862Z,100626.44
2022-09-09T14:16:52.530Z,100629.19
2022-09-09T14:19:24.921Z,100632.84
2022-09-09T14:21:54.593Z,100635.66
2022-09-09T14:24:24.612Z,100641.03
2022-09-09T14:26:54.342Z,100636.66
2022-09-09T14:29:24.033Z,100637.66
2022-09-09T14:31:53.712Z,100636.84
2022-09-09T14:34:25.972Z,100636.91
2022-09-09T14:36:55.658Z,100642.31
2022-09-09T14:39:25.344Z,100637.91
2022-09-09T14:41:55.053Z,100637.97
2022-09-09T14:44:24.789Z,100633.59
2022-09-09T14:46:55.261Z,100639.06
2022-09-09T14:49:27.605Z,100642.72
2022-09-09T14:51:57.478Z,100641.91
2022-09-09T14:54:27.209Z,100641.16
2022-09-09T14:56:58.234Z,100644.81
2022-09-09T14:59:28.156Z,100641.34
2022-09-09T15:01:57.954Z,100636.94
2022-09-09T15:04:30.315Z,100633.38
2022-09-09T15:07:00.018Z,100632.50
2022-09-09T15:09:30.315Z,100636.97
2022-09-09T15:12:00.276Z,100631.63
2022-09-09T15:14:30.105Z,100639.59
2022-09-09T15:16:59.791Z,100640.53
2022-09-09T15:19:33.341Z,100654.81
2022-09-09T15:22:03.345Z,100646.84
2022-09-09T15:24:33.017Z,100648.66
2022-09-09T15:27:03.039Z,100642.44
2022-09-09T15:29:32.750Z,100649.53
2022-09-09T15:32:02.457Z,100637.03
2022-09-09T15:34:34.921Z,100636.09
2022-09-09T15:37:04.624Z,100641.41
2022-09-09T15:39:38.612Z,100639.56
2022-09-09T15:42:09.532Z,100630.63
2022-09-09T15:44:45.667Z,100628.69
2022-09-09T15:47:17.643Z,100625.94
2022-09-09T15:49:49.922Z,100622.34
2022-09-09T15:52:19.853Z,100616.97
2022-09-09T15:54:49.651Z,100609.81
2022-09-09T15:57:19.472Z,100618.72
2022-09-09T15:59:49.399Z,100616.00
2022-09-09T16:02:19.309Z,100623.16
2022-09-09T16:04:51.661Z,100608.88
2022-09-09T16:07:21.654Z,100611.56
2022-09-09T16:09:52.544Z,100612.44
2022-09-09T16:12:22.685Z,100616.91
2022-09-09T16:14:52.408Z,100626.75
2022-09-09T16:17:22.240Z,100617.91
2022-09-09T16:19:55.388Z,100625.03
2022-09-09T16:22:25.614Z,100622.38
2022-09-09T16:24:55.319Z,100626.84
2022-09-09T16:27:25.061Z,100622.44
2022-09-09T16:29:54.949Z,100629.59
2022-09-09T16:32:24.688Z,100634.94
2022-09-09T16:34:57.349Z,100633.19
2022-09-09T16:37:27.059Z,100635.91
2022-09-09T16:39:56.835Z,100641.25
2022-09-09T16:42:26.599Z,100647.53
2022-09-09T16:44:56.609Z,100646.69
2022-09-09T16:47:26.449Z,100656.53
2022-09-09T16:49:58.812Z,100654.72
2022-09-09T16:52:28.491Z,100660.13
2022-09-09T16:54:58.152Z,100655.69
2022-09-09T16:57:27.817Z,100661.94
2022-09-09T17:00:00.384Z,100658.41
2022-09-09T17:02:30.143Z,100657.50
2022-09-09T17:05:02.878Z,100657.53
2022-09-09T17:07:33.640Z,100664.69
2022-09-09T17:10:03.327Z,100664.69
2022-09-09T17:12:33.250Z,100668.28
2022-09-09T17:15:04.224Z,100671.00
2022-09-09T17:17:33.909Z,100669.25
2022-09-09T17:20:08.219Z,100670.22
2022-09-09T17:22:37.920Z,100672.94
2022-09-09T17:25:08.669Z,100680.94
2022-09-09T17:27:38.400Z,100679.22
2022-09-09T17:30:10.314Z,100669.47
2022-09-09T17:32:40.018Z,100686.41
2022-09-09T17:35:13.133Z,100686.50
2022-09-09T17:37:42.839Z,100677.59
2022-09-09T17:40:13.089Z,100682.97
2022-09-09T17:42:43.355Z,100684.81
2022-09-09T17:45:13.770Z,100687.50
2022-09-09T17:47:44.009Z,100689.34
2022-09-09T17:50:16.510Z,100691.16
2022-09-09T17:52:46.206Z,100692.09
2022-09-09T17:55:16.877Z,100691.28
2022-09-09T17:57:47.211Z,100700.25
2022-09-09T18:00:17.608Z,100694.91
2022-09-09T18:02:48.541Z,100696.72
2022-09-09T18:05:21.444Z,100694.97
2022-09-09T18:07:51.400Z,100695.00
2022-09-09T18:10:21.136Z,100691.47
2022-09-09T18:12:50.880Z,100696.84
2022-09-09T18:15:39.153Z,100693.34
2022-09-09T18:18:10.725Z,100700.44
2022-09-09T18:20:44.407Z,100705.81
2022-09-09T18:23:14.104Z,100709.34
2022-09-09T18:25:44.481Z,100712.91
2022-09-09T18:28:14.165Z,100709.41
2022-09-09T18:30:44.012Z,100704.09
2022-09-09T18:33:13.669Z,100717.47
2022-09-09T18:35:48.467Z,100721.06
2022-09-09T18:38:19.423Z,100721.97
2022-09-09T18:40:49.101Z,100723.78
2022-09-09T18:43:18.854Z,100729.13
2022-09-09T18:45:48.524Z,100735.34
2022-09-09T18:48:18.224Z,100738.03
2022-09-09T18:50:50.630Z,100745.13
2022-09-09T18:53:20.328Z,100743.34
2022-09-09T18:55:50.052Z,100746.94
2022-09-09T18:58:19.756Z,100755.81
2022-09-09T19:00:49.506Z,100754.91
2022-09-09T19:03:19.235Z,100753.13
2022-09-09T19:05:51.849Z,100743.34
2022-09-09T19:08:22.116Z,100742.50
2022-09-09T19:10:52.455Z,100741.56
2022-09-09T19:13:22.260Z,100745.13
2022-09-09T19:15:52.302Z,100747.81
2022-09-09T19:18:22.024Z,100750.47
2022-09-09T19:20:54.301Z,100739.81
2022-09-09T19:23:29.833Z,100750.47
2022-09-09T19:26:06.312Z,100757.59
2022-09-09T19:28:36.155Z,100762.03
2022-09-09T19:31:07.476Z,100763.78
2022-09-09T19:33:38.214Z,100756.72
2022-09-09T19:36:11.126Z,100766.47
2022-09-09T19:38:41.701Z,100768.25
2022-09-09T19:41:13.447Z,100764.72
2022-09-09T19:43:43.825Z,100770.00
2022-09-09T19:46:15.654Z,100771.81
2022-09-09T19:48:46.040Z,100769.16
2022-09-09T19:51:21.716Z,100764.69
2022-09-09T19:53:53.300Z,100761.16
2022-09-09T19:56:25.256Z,100766.50
2022-09-09T19:58:55.835Z,100758.47
2022-09-09T20:01:27.347Z,100759.41
2022-09-09T20:03:59.940Z,100754.06
2022-09-09T20:06:35.291Z,100762.94
2022-09-09T20:09:06.075Z,100766.50
2022-09-09T20:11:36.512Z,100761.16
2022-09-09T20:14:06.463Z,100766.53
2022-09-09T20:16:37.133Z,100768.28
2022-09-09T20:19:10.356Z,100765.63
2022-09-09T20:21:47.514Z,100766.50
2022-09-09T20:24:19.553Z,100771.84
2022-09-09T20:26:50.000Z,100765.59
2022-09-09T20:29:22.210Z,100764.72
2022-09-09T20:31:52.098Z,100762.03
2022-09-09T20:34:25.924Z,100762.97
2022-09-09T20:36:59.394Z,100762.06
2022-09-09T20:39:29.383Z,100762.94
2022-09-09T20:41:59.572Z,100762.06
2022-09-09T20:44:29.815Z,100762.94
2022-09-09T20:47:02.941Z,100760.28
2022-09-09T20:49:35.268Z,100762.97
2022-09-09T20:52:07.675Z,100773.59
2022-09-09T20:54:38.911Z,100770.94
2022-09-09T20:57:08.787Z,100764.72
2022-09-09T20:59:38.463Z,100767.38
2022-09-09T21:02:08.270Z,100769.19
2022-09-09T21:04:38.288Z,100778.94
2022-09-09T21:07:10.556Z,100774.50
2022-09-09T21:09:41.205Z,100779.84
2022-09-09T21:12:11.488Z,100777.16
2022-09-09T21:14:41.183Z,100779.81
2022-09-09T21:17:10.849Z,100782.47
2022-09-09T21:19:41.198Z,100779.81
2022-09-09T21:22:14.374Z,100784.25
2022-09-09T21:24:44.034Z,100783.34
2022-09-09T21:27:13.667Z,100786.91
2022-09-09T21:29:43.398Z,100788.69
2022-09-09T21:32:13.084Z,100783.38
2022-09-09T21:34:42.767Z,100782.50
2022-09-09T21:37:15.032Z,100784.25
2022-09-09T21:39:44.730Z,100782.47
2022-09-09T21:42:14.809Z,100789.56
2022-09-09T21:44:44.527Z,100787.81
2022-09-09T21:47:16.178Z,100787.81
2022-09-09T21:49:45.848Z,100792.22
2022-09-09T21:52:19.035Z,100794.03
2022-09-09T21:54:48.719Z,100794.88
2022-09-09T21:57:22.958Z,100798.44
2022-09-09T21:59:54.675Z,100797.56
2022-09-09T22:02:24.770Z,100800.22
2022-09-09T22:04:54.514Z,100801.09
2022-09-09T22:07:26.760Z,100804.63
2022-09-09T22:09:56.435Z,100802.88
2022-09-09T22:12:26.100Z,100798.44
2022-09-09T22:14:56.663Z,100798.44
2022-09-09T22:17:26.336Z,100801.09
2022-09-09T22:19:56.071Z,100792.22
2022-09-09T22:22:28.379Z,100798.41
2022-09-09T22:24:58.048Z,100797.53
2022-09-09T22:27:27.818Z,100798.41
2022-09-09T22:29:57.492Z,100801.97
2022-09-09T22:32:27.223Z,100793.97
2022-09-09T22:34:56.903Z,100802.84
2022-09-09T22:37:29.198Z,100801.97
2022-09-09T22:39:58.951Z,100801.06
2022-09-09T22:42:28.634Z,100807.28
2022-09-09T22:44:58.324Z,100808.16
2022-09-09T22:47:28.143Z,100801.94
2022-09-09T22:49:58.360Z,100811.66
2022-09-09T22:52:31.923Z,100814.34
2022-09-09T22:55:01.851Z,100812.56
2022-09-09T22:57:31.589Z,100818.78
2022-09-09T23:00:01.612Z,100820.53
2022-09-09T23:02:31.667Z,100824.06
2022-09-09T23:05:01.450Z,100824.03
2022-09-09T23:07:33.791Z,100819.59
2022-09-09T23:10:03.448Z,100827.53
2022-09-09T23:12:33.200Z,100831.94
2022-09-09T23:15:03.197Z,100832.84
2022-09-09T23:17:34.457Z,100838.19
2022-09-09T23:20:04.828Z,100832.88
2022-09-09T23:22:37.205Z,100829.31
2022-09-09T23:25:07.961Z,100835.47
2022-09-09T23:27:38.717Z,100829.25
2022-09-09T23:30:10.892Z,100827.44
2022-09-09T23:32:40.559Z,100832.72
2022-09-09T23:35:10.924Z,100830.09
2022-09-09T23:37:43.221Z,100833.66
2022-09-09T23:40:13.047Z,100830.97
2022-09-09T23:42:42.762Z,100837.22
2022-09-09T23:45:15.127Z,100829.22
2022-09-09T23:47:44.759Z,100834.53
2022-09-09T23:50:14.923Z,100834.56
2022-09-09T23:52:47.256Z,100841.66
2022-09-09T23:55:16.967Z,100836.31
2022-09-09T23:57:46.652Z,100842.53
